Time;durP1;ratioP1;P1;durP2;ratioP2;P2;SDS_P1;SDS_P2;PMS_P1;PMS_P2;Temp;Humidity;BMP_temperature;BMP_pressure;BME280_temperature;BME280_humidity;BME280_pressure;Samples;Min_cycle;Max_cycle;Signal;HPM_P1;HPM_P2
2022/11/14 00:01:12;;;;;;;;;26.50;22.50;;;;;21.35;52.64;100604.41;5019287;28;65989;-47
2022/11/14 00:03:37;;;;;;;;;24.75;21.00;;;;;21.33;52.93;100592.97;5003617;28;45227;-48
2022/11/14 00:06:06;;;;;;;;;24.50;20.25;;;;;21.35;53.12;100603.53;5001940;28;60964;-51
2022/11/14 00:08:31;;;;;;;;;26.50;22.25;;;;;21.35;53.14;100599.09;5021273;28;45279;-46
2022/11/14 00:10:57;;;;;;;;;21.50;20.00;;;;;21.35;52.79;100592.91;5020455;28;65808;-46
2022/11/14 00:13:22;;;;;;;;;25.50;23.75;;;;;21.35;52.90;100587.63;5019532;28;59153;-46
2022/11/14 00:15:49;;;;;;;;;23.00;21.75;;;;;21.35;52.25;100588.47;5020656;28;61322;-45
2022/11/14 00:18:15;;;;;;;;;21.25;19.00;;;;;21.35;52.88;100596.44;5021407;28;45204;-46
2022/11/14 00:20:40;;;;;;;;;23.25;21.25;;;;;21.33;52.88;100582.38;5003531;28;45397;-43
2022/11/14 00:23:05;;;;;;;;;28.00;25.00;;;;;21.34;52.72;100586.75;5019407;28;60913;-44
2022/11/14 00:25:31;;;;;;;;;22.50;22.50;;;;;21.34;52.67;100578.78;5019412;28;56125;-46
2022/11/14 00:27:57;;;;;;;;;27.00;22.25;;;;;21.34;52.40;100572.63;5019458;28;45950;-44
2022/11/14 00:30:23;;;;;;;;;27.00;23.75;;;;;21.34;53.19;100573.47;5021059;28;45310;-44
2022/11/14 00:32:48;;;;;;;;;27.75;23.00;;;;;21.33;52.60;100573.53;5021068;28;45496;-47
2022/11/14 00:35:14;;;;;;;;;23.25;22.75;;;;;21.34;52.03;100575.25;5020534;28;55708;-46
2022/11/14 00:37:40;;;;;;;;;26.25;23.25;;;;;21.34;52.33;100575.25;5021005;28;45566;-44
2022/11/14 00:40:05;;;;;;;;;22.00;20.00;;;;;21.32;52.14;100570.03;5020808;28;45883;-46
2022/11/14 00:42:31;;;;;;;;;24.50;23.50;;;;;21.34;52.22;100577.91;5020893;28;45307;-47
2022/11/14 00:44:56;;;;;;;;;25.75;20.50;;;;;21.33;52.14;100577.06;5020987;28;45283;-45
2022/11/14 00:47:22;;;;;;;;;28.75;26.50;;;;;21.34;51.79;100575.25;5019817;28;70296;-44
2022/11/14 00:49:47;;;;;;;;;25.00;21.75;;;;;21.33;51.62;100561.13;5001678;28;72656;-46
2022/11/14 00:52:12;;;;;;;;;26.75;24.00;;;;;21.33;51.94;100561.13;5020797;28;45297;-45
2022/11/14 00:54:38;;;;;;;;;27.25;22.50;;;;;21.32;51.98;100555.88;5019110;28;45603;-47
2022/11/14 00:57:03;;;;;;;;;22.75;22.75;;;;;21.32;51.72;100556.75;5019567;28;69715;-46
2022/11/14 00:59:29;;;;;;;;;27.25;24.00;;;;;21.31;51.81;100555.03;5020954;28;45317;-47
2022/11/14 01:01:54;;;;;;;;;27.50;24.00;;;;;21.32;51.72;100558.53;5019593;28;45659;-45
2022/11/14 01:04:19;;;;;;;;;30.75;28.00;;;;;21.32;51.40;100555.88;5019464;28;70348;-45
2022/11/14 01:06:45;;;;;;;;;34.00;27.50;;;;;21.31;51.61;100554.16;5019696;28;65421;-45
2022/11/14 01:09:10;;;;;;;;;29.00;26.50;;;;;21.32;51.56;100553.22;5018577;28;58537;-45
2022/11/14 01:11:35;;;;;;;;;28.00;22.75;;;;;21.30;51.29;100555.94;5018569;28;54679;-45
2022/11/14 01:14:01;;;;;;;;;30.50;27.25;;;;;21.30;51.45;100558.59;5018613;28;55602;-47
2022/11/14 01:16:27;;;;;;;;;28.50;24.75;;;;;21.30;51.73;100555.09;5018936;28;72019;-44
2022/11/14 01:18:52;;;;;;;;;28.50;22.50;;;;;21.30;51.05;100555.09;5019288;28;64685;-47
2022/11/14 01:21:17;;;;;;;;;25.00;22.75;;;;;21.30;51.60;100545.31;5020051;28;49831;-46
2022/11/14 01:23:43;;;;;;;;;30.00;26.75;;;;;21.30;51.47;100541.81;5019414;28;65048;-45
2022/11/14 01:26:12;;;;;;;;;18.25;18.25;;;;;21.30;51.31;100541.81;5002221;28;45968;-44
2022/11/14 01:28:38;;;;;;;;;24.25;22.75;;;;;21.29;51.45;100535.63;4999349;28;45334;-44
2022/11/14 01:31:23;;;;;;;;;35.25;28.00;;;;;21.28;51.58;100525.06;5019554;28;45323;-44
2022/11/14 01:33:49;;;;;;;;;32.50;24.25;;;;;21.28;51.33;100533.88;5018820;28;45264;-45
2022/11/14 01:36:15;;;;;;;;;25.25;25.00;;;;;21.28;51.18;100533.88;5018692;28;45487;-46
2022/11/14 01:38:40;;;;;;;;;27.25;23.50;;;;;21.28;51.07;100522.41;5018676;28;45251;-48
2022/11/14 01:41:05;;;;;;;;;31.25;26.75;;;;;21.27;51.30;100524.19;5018695;28;45223;-47
2022/11/14 01:43:37;;;;;;;;;26.75;24.00;;;;;21.27;51.60;100521.53;5019756;28;52372;-45
2022/11/14 01:46:22;;;;;;;;;32.50;27.00;;;;;21.27;50.90;100513.56;5018697;28;46109;-47
2022/11/14 01:48:53;;;;;;;;;31.00;28.00;;;;;21.26;50.85;100509.16;5019796;28;45362;-47
2022/11/14 01:51:46;;;;;;;;;31.00;26.25;;;;;21.26;51.26;100514.47;4985987;28;45197;-47
2022/11/14 01:54:15;;;;;;;;;31.25;29.25;;;;;21.25;51.02;100512.75;5004727;28;45481;-47
2022/11/14 01:56:46;;;;;;;;;31.75;25.50;;;;;21.26;51.01;100511.81;5018447;28;45460;-50
2022/11/14 01:59:14;;;;;;;;;25.50;24.50;;;;;21.26;50.89;100516.25;5019433;28;45283;-46
2022/11/14 02:01:43;;;;;;;;;26.25;21.75;;;;;21.26;51.12;100505.63;5002546;28;45497;-47
2022/11/14 02:04:09;;;;;;;;;23.75;21.75;;;;;21.26;50.96;100508.28;4985687;28;45571;-45
2022/11/14 02:06:34;;;;;;;;;29.50;26.00;;;;;21.26;50.71;100508.28;5018859;28;69042;-47
2022/11/14 02:09:02;;;;;;;;;33.00;28.50;;;;;21.26;50.64;100510.94;5018902;28;61841;-48
2022/11/14 02:11:28;;;;;;;;;34.00;27.00;;;;;21.27;51.15;100510.91;5018249;28;45285;-50
2022/11/14 02:13:53;;;;;;;;;28.00;25.50;;;;;21.26;50.75;100508.28;5018301;28;45470;-47
2022/11/14 02:16:19;;;;;;;;;28.00;24.50;;;;;21.27;51.56;100515.34;5018941;28;65436;-47
2022/11/14 02:18:44;;;;;;;;;26.75;21.75;;;;;21.26;51.31;100510.94;5017535;28;58343;-45
2022/11/14 02:21:09;;;;;;;;;28.75;25.25;;;;;21.26;50.91;100510.94;5018486;28;45897;-46
2022/11/14 02:23:35;;;;;;;;;31.75;28.75;;;;;21.25;51.10;100507.44;5018054;28;45445;-45
2022/11/14 02:26:00;;;;;;;;;28.00;25.25;;;;;21.25;51.31;100512.75;5019221;28;45908;-50
2022/11/14 02:28:26;;;;;;;;;31.25;23.50;;;;;21.25;51.44;100514.53;5019650;28;45310;-46
2022/11/14 02:30:51;;;;;;;;;27.75;24.25;;;;;21.24;51.77;100513.66;5004667;28;58959;-45
2022/11/14 02:33:17;;;;;;;;;30.00;27.00;;;;;21.22;51.75;100502.25;5022024;28;60661;-46
2022/11/14 02:35:42;;;;;;;;;28.50;25.00;;;;;21.20;52.19;100492.59;5022989;28;46110;-48
2022/11/14 02:38:08;;;;;;;;;26.25;24.25;;;;;21.19;51.99;100499.69;5020792;28;63793;-48
2022/11/14 02:40:33;;;;;;;;;26.75;23.25;;;;;21.19;51.58;100489.06;5022708;28;45432;-52
2022/11/14 02:42:59;;;;;;;;;29.25;25.00;;;;;21.18;52.38;100482.91;5021145;28;55865;-48
2022/11/14 02:45:24;;;;;;;;;31.50;28.00;;;;;21.18;51.84;100482.91;5021731;28;75680;-51
2022/11/14 02:47:49;;;;;;;;;27.75;26.00;;;;;21.18;52.15;100479.38;5021627;28;73176;-49
2022/11/14 02:50:15;;;;;;;;;27.50;24.50;;;;;21.19;52.39;100478.47;5021360;28;45459;-46
2022/11/14 02:52:41;;;;;;;;;29.50;25.50;;;;;21.18;52.53;100476.72;5022572;28;45485;-47
2022/11/14 02:55:07;;;;;;;;;28.25;26.75;;;;;21.18;52.19;100484.69;5020106;28;66236;-47
2022/11/14 02:57:32;;;;;;;;;27.25;23.50;;;;;21.17;52.65;100467.03;5022329;28;45265;-49
2022/11/14 02:59:57;;;;;;;;;31.00;27.00;;;;;21.17;52.40;100467.03;5020787;28;52045;-49
2022/11/14 03:02:23;;;;;;;;;26.00;23.75;;;;;21.17;52.33;100464.41;5021987;28;56589;-47
2022/11/14 03:04:48;;;;;;;;;32.25;27.50;;;;;21.16;52.32;100454.72;5022245;28;46090;-50
2022/11/14 03:07:14;;;;;;;;;30.50;26.00;;;;;21.16;52.68;100444.94;5022138;28;45276;-50
2022/11/14 03:09:39;;;;;;;;;26.25;26.25;;;;;21.16;52.61;100450.25;5022094;28;52364;-46
2022/11/14 03:12:05;;;;;;;;;28.50;26.75;;;;;21.16;52.64;100442.31;5021970;28;56519;-50
2022/11/14 03:14:30;;;;;;;;;23.25;22.25;;;;;21.15;52.57;100451.19;5004312;28;45374;-46
2022/11/14 03:16:55;;;;;;;;;25.50;24.50;;;;;21.14;52.74;100446.81;5004475;28;45343;-50
2022/11/14 03:19:21;;;;;;;;;30.50;23.75;;;;;21.15;53.11;100450.31;5021232;28;60132;-49
2022/11/14 03:21:46;;;;;;;;;28.00;22.25;;;;;21.15;52.95;100445.88;5021231;28;66706;-50
2022/11/14 03:24:12;;;;;;;;;29.25;25.75;;;;;21.14;53.05;100444.16;5020835;28;46026;-46
2022/11/14 03:26:37;;;;;;;;;29.00;22.50;;;;;21.16;53.18;100454.72;5019626;28;69647;-47
2022/11/14 03:29:02;;;;;;;;;28.50;25.75;;;;;21.14;52.96;100443.28;5022258;28;45237;-48
2022/11/14 03:31:28;;;;;;;;;26.25;22.50;;;;;21.14;52.93;100443.28;5021209;28;61329;-50
2022/11/14 03:33:53;;;;;;;;;30.50;27.00;;;;;21.13;53.08;100445.09;5021708;28;49324;-48
2022/11/14 03:36:19;;;;;;;;;24.25;22.50;;;;;21.13;52.74;100453.03;5021886;28;45314;-47
2022/11/14 03:38:44;;;;;;;;;29.25;25.50;;;;;21.12;52.96;100453.97;5022067;28;45666;-49
2022/11/14 03:41:10;;;;;;;;;24.00;22.00;;;;;21.11;52.93;100448.69;5003648;28;45257;-46
2022/11/14 03:43:35;;;;;;;;;23.25;22.00;;;;;21.10;53.23;100449.63;5021138;28;66935;-48
2022/11/14 03:46:01;;;;;;;;;29.50;25.25;;;;;21.11;53.25;100451.34;5020379;28;45336;-48
2022/11/14 03:48:27;;;;;;;;;23.75;21.50;;;;;21.11;52.99;100446.94;5020524;28;45300;-46
2022/11/14 03:50:52;;;;;;;;;27.25;23.50;;;;;21.11;53.23;100446.94;5020304;28;45338;-48
2022/11/14 03:53:17;;;;;;;;;26.50;20.75;;;;;21.12;53.54;100443.34;5019447;28;68862;-49
2022/11/14 03:55:43;;;;;;;;;24.25;23.00;;;;;21.13;53.42;100444.22;5019827;28;47508;-47
2022/11/14 03:58:08;;;;;;;;;27.00;22.00;;;;;21.13;53.51;100430.94;5020295;28;45928;-47
2022/11/14 04:00:34;;;;;;;;;22.50;22.50;;;;;21.13;53.67;100433.59;5019593;28;62837;-48
2022/11/14 04:02:59;;;;;;;;;26.25;20.50;;;;;21.14;54.01;100435.34;5020662;28;65388;-50
2022/11/14 04:05:24;;;;;;;;;20.00;19.75;;;;;21.14;53.58;100430.03;5019718;28;61501;-46
2022/11/14 04:07:50;;;;;;;;;26.50;22.50;;;;;21.13;53.32;100426.50;5021502;28;45338;-49
2022/11/14 04:10:15;;;;;;;;;25.00;20.50;;;;;21.14;53.70;100416.75;5019571;28;58415;-48
2022/11/14 04:12:45;;;;;;;;;24.75;19.50;;;;;21.15;53.43;100426.44;5020151;28;45294;-47
2022/11/14 04:15:11;;;;;;;;;20.25;20.00;;;;;21.15;53.81;100423.78;5004217;28;45458;-47
2022/11/14 04:17:36;;;;;;;;;27.00;20.00;;;;;21.14;53.58;100427.38;5020742;28;56835;-48
2022/11/14 04:20:01;;;;;;;;;27.50;24.00;;;;;21.14;53.41;100435.34;5020286;28;68524;-45
2022/11/14 04:22:27;;;;;;;;;21.25;19.25;;;;;21.14;53.47;100446.81;5020745;28;56626;-45
2022/11/14 04:24:52;;;;;;;;;21.75;18.75;;;;;21.15;53.78;100439.72;5019124;28;62361;-44
2022/11/14 04:27:17;;;;;;;;;21.75;18.75;;;;;21.15;53.87;100445.03;5019444;28;59739;-45
2022/11/14 04:29:43;;;;;;;;;26.50;22.75;;;;;21.14;53.74;100436.19;5020150;28;64703;-45
2022/11/14 04:32:08;;;;;;;;;22.50;20.25;;;;;21.14;53.85;100443.28;5021208;28;45246;-45
2022/11/14 04:34:34;;;;;;;;;20.25;20.00;;;;;21.14;53.65;100446.81;5019479;28;45539;-46
2022/11/14 04:36:59;;;;;;;;;21.50;19.50;;;;;21.15;53.58;100439.72;5021403;28;45390;-46
2022/11/14 04:39:24;;;;;;;;;24.25;23.00;;;;;21.15;53.74;100437.06;5016704;28;55360;-46
2022/11/14 04:41:50;;;;;;;;;24.50;21.75;;;;;21.14;53.77;100432.69;5017732;28;61901;-45
2022/11/14 04:44:15;;;;;;;;;25.75;18.50;;;;;21.13;53.88;100431.81;5035905;28;45326;-45
2022/11/14 04:46:40;;;;;;;;;24.00;19.50;;;;;21.13;53.42;100437.13;5020207;28;63091;-48
2022/11/14 04:49:06;;;;;;;;;22.00;21.00;;;;;21.13;54.04;100430.94;5018651;28;64781;-46
2022/11/14 04:51:31;;;;;;;;;26.00;21.25;;;;;21.12;53.97;100422.13;5019940;28;46259;-50
2022/11/14 04:53:57;;;;;;;;;21.75;18.50;;;;;21.13;53.67;100425.66;5001536;28;59472;-50
2022/11/14 04:56:24;;;;;;;;;20.00;19.50;;;;;21.12;54.04;100421.28;5002150;28;49593;-48
2022/11/14 04:58:49;;;;;;;;;19.50;18.50;;;;;21.13;53.81;100423.00;5020491;28;45573;-50
2022/11/14 05:01:15;;;;;;;;;23.00;18.50;;;;;21.13;54.10;100412.38;5019074;28;46164;-48
2022/11/14 05:03:40;;;;;;;;;18.50;17.25;;;;;21.13;54.03;100412.38;5019517;28;71675;-49
2022/11/14 05:06:06;;;;;;;;;24.75;20.50;;;;;21.13;53.58;100405.28;5019338;28;45197;-51
2022/11/14 05:08:31;;;;;;;;;17.75;16.75;;;;;21.12;53.80;100405.34;5018354;28;45378;-45
2022/11/14 05:10:56;;;;;;;;;19.00;19.00;;;;;21.11;53.53;100399.19;5019278;28;70882;-49
2022/11/14 05:13:22;;;;;;;;;20.50;20.00;;;;;21.11;53.98;100399.19;5000097;28;65888;-47
2022/11/14 05:15:47;;;;;;;;;19.50;15.25;;;;;21.11;53.91;100395.63;5019335;28;45288;-50
2022/11/14 05:18:13;;;;;;;;;22.25;16.00;;;;;21.11;53.73;100399.19;5017876;28;68481;-51
2022/11/14 05:20:38;;;;;;;;;21.00;18.75;;;;;21.10;53.85;100383.28;5020205;28;45418;-48
2022/11/14 05:23:03;;;;;;;;;19.50;18.25;;;;;21.10;53.80;100393.91;5018458;28;45446;-46
2022/11/14 05:25:29;;;;;;;;;22.00;16.50;;;;;21.11;53.81;100392.97;5019509;28;45684;-52
2022/11/14 05:27:54;;;;;;;;;17.75;16.75;;;;;21.11;53.81;100388.56;5020146;28;45218;-47
2022/11/14 05:30:20;;;;;;;;;17.50;16.00;;;;;21.11;53.96;100385.00;5019972;28;47423;-50
2022/11/14 05:32:45;;;;;;;;;20.50;18.50;;;;;21.10;53.92;100381.50;5019506;28;61619;-50
2022/11/14 05:35:10;;;;;;;;;20.75;17.25;;;;;21.12;53.64;100381.47;5019370;28;59488;-49
2022/11/14 05:37:36;;;;;;;;;19.75;17.75;;;;;21.12;54.24;100381.47;5020119;28;45214;-49
2022/11/14 05:40:02;;;;;;;;;18.75;15.75;;;;;21.12;54.03;100374.34;5017178;28;61640;-49
2022/11/14 05:42:27;;;;;;;;;19.25;16.25;;;;;21.11;54.03;100371.75;5002402;28;45375;-49
2022/11/14 05:44:53;;;;;;;;;21.50;19.00;;;;;21.11;54.43;100362.03;5018343;28;55554;-47
2022/11/14 05:47:18;;;;;;;;;18.50;17.00;;;;;21.12;54.35;100362.88;5018136;28;61971;-47
2022/11/14 05:49:43;;;;;;;;;23.25;18.75;;;;;21.12;54.42;100362.88;5017898;28;66788;-46
2022/11/14 05:52:09;;;;;;;;;18.00;16.00;;;;;21.11;54.02;100358.47;5016743;28;60871;-47
2022/11/14 05:54:34;;;;;;;;;18.00;16.75;;;;;21.13;54.46;100364.59;5013616;28;45540;-48
2022/11/14 05:57:00;;;;;;;;;19.00;15.75;;;;;21.12;54.57;100362.88;5015100;28;57685;-48
2022/11/14 05:59:26;;;;;;;;;17.25;16.50;;;;;21.13;54.68;100361.97;5015541;28;69049;-48
2022/11/14 06:01:51;;;;;;;;;18.75;14.50;;;;;21.13;54.86;100354.00;5019604;28;45279;-49
2022/11/14 06:04:17;;;;;;;;;18.25;17.25;;;;;21.13;54.80;100349.56;5003692;28;45470;-45
2022/11/14 06:06:42;;;;;;;;;20.75;17.00;;;;;21.14;54.32;100356.59;5019935;28;64186;-48
2022/11/14 06:09:07;;;;;;;;;16.25;14.75;;;;;21.14;54.26;100355.72;5023018;28;45268;-48
2022/11/14 06:11:33;;;;;;;;;19.50;17.25;;;;;21.14;54.48;100351.28;5022521;28;45573;-51
2022/11/14 06:13:58;;;;;;;;;17.75;16.50;;;;;21.15;54.47;100357.44;5021204;28;59645;-47
2022/11/14 06:16:24;;;;;;;;;17.50;15.25;;;;;21.14;54.34;100353.94;5022914;28;50935;-51
2022/11/14 06:18:51;;;;;;;;;17.75;16.00;;;;;21.14;54.56;100353.06;5022637;28;46488;-47
2022/11/14 06:21:18;;;;;;;;;19.25;15.50;;;;;21.15;54.53;100352.13;4988936;28;45310;-47
2022/11/14 06:23:44;;;;;;;;;15.75;15.75;;;;;21.15;54.83;100353.00;5022055;28;45284;-47
2022/11/14 06:26:32;;;;;;;;;20.50;17.75;;;;;21.16;54.74;100349.41;5021373;28;45383;-49
2022/11/14 06:28:57;;;;;;;;;15.75;15.00;;;;;21.17;54.91;100360.88;5022563;28;46159;-47
2022/11/14 06:31:23;;;;;;;;;16.00;15.00;;;;;21.19;54.36;100353.72;5022878;28;45244;-45
2022/11/14 06:33:48;;;;;;;;;15.25;13.50;;;;;21.19;54.89;100359.03;5020735;28;45334;-47
2022/11/14 06:36:14;;;;;;;;;17.00;14.25;;;;;21.21;54.85;100354.56;5022557;28;45521;-44
2022/11/14 06:38:40;;;;;;;;;18.75;15.50;;;;;21.21;54.71;100359.84;5021576;28;45318;-44
2022/11/14 06:41:06;;;;;;;;;17.25;15.50;;;;;21.23;54.62;100358.00;5021331;28;45402;-45
2022/11/14 06:43:33;;;;;;;;;20.00;16.00;;;;;21.24;54.68;100359.72;5004742;28;45286;-44
2022/11/14 06:45:58;;;;;;;;;18.00;16.25;;;;;21.25;54.77;100357.94;5005047;28;45803;-43
2022/11/14 06:48:24;;;;;;;;;22.75;17.00;;;;;21.26;55.05;100360.50;5022531;28;45307;-45
2022/11/14 06:50:53;;;;;;;;;17.50;16.75;;;;;21.29;54.75;100357.78;5003999;28;71593;-43
2022/11/14 06:53:18;;;;;;;;;17.75;14.25;;;;;21.31;55.29;100363.88;5022572;28;45236;-43
2022/11/14 06:55:59;;;;;;;;;18.00;14.75;;;;;21.34;55.06;100358.44;5022363;28;45596;-44
2022/11/14 06:58:25;;;;;;;;;23.00;16.75;;;;;21.35;55.40;100370.78;5022305;28;46193;-43
2022/11/14 07:00:51;;;;;;;;;18.25;14.25;;;;;21.36;55.43;100382.25;5002705;28;45266;-43
2022/11/14 07:03:16;;;;;;;;;17.25;12.75;;;;;21.37;55.57;100389.31;5021717;28;58028;-45
2022/11/14 07:05:41;;;;;;;;;15.50;15.25;;;;;21.37;55.53;100391.94;5020475;28;57902;-47
2022/11/14 07:08:07;;;;;;;;;16.25;15.50;;;;;21.38;55.70;100396.38;5021343;28;68832;-46
2022/11/14 07:10:32;;;;;;;;;19.00;16.00;;;;;21.39;55.75;100392.78;5020896;28;45216;-48
2022/11/14 07:12:58;;;;;;;;;17.75;15.00;;;;;21.37;55.46;100395.50;5021589;28;66076;-45
2022/11/14 07:15:23;;;;;;;;;13.50;13.25;;;;;21.38;55.56;100396.38;5021098;28;65581;-44
2022/11/14 07:17:49;;;;;;;;;14.25;14.25;;;;;21.39;55.59;100392.78;5022038;28;45254;-43
2022/11/14 07:20:14;;;;;;;;;15.75;13.25;;;;;21.39;55.40;100387.47;5021381;28;58815;-46
2022/11/14 07:22:40;;;;;;;;;16.25;14.00;;;;;21.38;55.92;100391.91;5022463;28;45232;-45
2022/11/14 07:25:05;;;;;;;;;15.25;13.75;;;;;21.38;55.62;100391.91;5020032;28;59986;-44
2022/11/14 07:27:31;;;;;;;;;14.50;13.25;;;;;21.38;55.65;100394.56;5021998;28;45826;-44
2022/11/14 07:29:56;;;;;;;;;15.75;14.75;;;;;21.38;55.70;100396.38;5021937;28;45236;-44
2022/11/14 07:32:22;;;;;;;;;14.00;11.50;;;;;21.39;55.17;100392.78;5022149;28;45802;-43
2022/11/14 07:34:47;;;;;;;;;14.50;11.50;;;;;21.38;55.01;100391.91;5021510;28;52484;-41
2022/11/14 07:37:12;;;;;;;;;16.00;12.25;;;;;21.37;55.53;100392.84;5020439;28;46171;-44
2022/11/14 07:39:38;;;;;;;;;22.00;16.25;;;;;21.38;55.78;100391.06;5021232;28;50999;-45
2022/11/14 07:42:03;;;;;;;;;12.50;9.00;;;;;21.38;55.56;100396.38;5019178;28;67389;-45
2022/11/14 07:44:28;;;;;;;;;17.75;14.50;;;;;21.38;55.71;100393.72;5021153;28;58718;-44
2022/11/14 07:46:54;;;;;;;;;16.75;13.50;;;;;21.39;55.24;100395.44;5021203;28;62664;-49
2022/11/14 07:49:19;;;;;;;;;16.25;14.50;;;;;21.40;55.74;100390.06;5020826;28;63166;-44
2022/11/14 07:51:45;;;;;;;;;18.75;16.00;;;;;21.41;55.68;100391.78;5020892;28;45809;-46
2022/11/14 07:54:10;;;;;;;;;15.25;13.75;;;;;21.42;55.22;100387.34;5019473;28;67551;-45
2022/11/14 07:56:36;;;;;;;;;15.50;12.25;;;;;21.40;55.70;100390.06;5018899;28;46343;-44
2022/11/14 07:59:01;;;;;;;;;16.00;14.25;;;;;21.45;55.49;100396.03;5019005;28;45354;-48
2022/11/14 08:01:27;;;;;;;;;17.00;14.75;;;;;21.43;55.76;100391.72;5018249;28;48314;-51
2022/11/14 08:03:52;;;;;;;;;11.50;11.00;;;;;21.43;55.75;100386.41;5019918;28;45256;-44
2022/11/14 08:06:18;;;;;;;;;16.50;14.25;;;;;21.45;55.87;100389.84;5020708;28;45366;-47
2022/11/14 08:08:43;;;;;;;;;19.00;15.50;;;;;21.48;55.92;100391.53;5002377;28;45275;-44
2022/11/14 08:11:08;;;;;;;;;18.75;13.00;;;;;21.47;55.42;100384.50;5020710;28;45229;-45
2022/11/14 08:13:34;;;;;;;;;12.50;11.25;;;;;21.48;55.77;100386.22;5019083;28;45344;-50
2022/11/14 08:16:06;;;;;;;;;18.25;14.50;;;;;21.49;55.53;100390.59;5017295;28;59920;-49
2022/11/14 08:18:32;;;;;;;;;15.25;13.25;;;;;21.49;56.27;100386.16;5017440;28;45541;-48
2022/11/14 08:20:58;;;;;;;;;14.75;12.75;;;;;21.50;55.81;100389.69;5018626;28;66831;-48
2022/11/14 08:23:23;;;;;;;;;13.25;13.00;;;;;21.50;56.00;100387.88;5017014;28;45356;-49
2022/11/14 08:25:48;;;;;;;;;10.50;10.00;;;;;21.52;55.79;100390.47;5018693;28;63049;-46
2022/11/14 08:28:14;;;;;;;;;16.25;14.75;;;;;21.52;55.66;100394.00;5018400;28;45343;-49
2022/11/14 08:30:39;;;;;;;;;15.50;14.00;;;;;21.52;55.84;100390.47;5002739;28;46929;-51
2022/11/14 08:33:05;;;;;;;;;15.25;14.00;;;;;21.53;55.87;100385.09;4985636;28;45289;-49
2022/11/14 08:35:31;;;;;;;;;17.00;13.50;;;;;21.54;56.08;100392.13;5019645;28;46727;-47
2022/11/14 08:37:57;;;;;;;;;14.25;10.75;;;;;21.55;55.94;100385.06;5017743;28;45770;-47
2022/11/14 08:40:22;;;;;;;;;12.00;10.25;;;;;21.56;55.94;100390.28;5018709;28;45351;-50
2022/11/14 08:42:48;;;;;;;;;14.00;13.00;;;;;21.56;55.97;100384.13;5020599;28;45336;-47
2022/11/14 08:45:13;;;;;;;;;18.00;15.50;;;;;21.57;56.20;100391.16;5019881;28;70347;-46
2022/11/14 08:47:38;;;;;;;;;12.00;12.00;;;;;21.57;56.05;100389.38;5017579;28;45222;-48
2022/11/14 08:50:04;;;;;;;;;15.00;12.75;;;;;21.57;56.08;100389.38;5018987;28;53070;-48
2022/11/14 08:52:30;;;;;;;;;13.75;13.00;;;;;21.58;56.30;100392.88;5019059;28;45327;-49
2022/11/14 08:54:55;;;;;;;;;12.75;11.50;;;;;21.58;56.05;100391.09;5018235;28;61704;-46
2022/11/14 08:57:21;;;;;;;;;19.25;12.25;;;;;21.59;56.03;100398.13;5019833;28;64204;-46
2022/11/14 08:59:46;;;;;;;;;13.75;13.75;;;;;21.60;56.14;100396.31;5018431;28;45430;-48
2022/11/14 09:02:15;;;;;;;;;18.00;16.00;;;;;21.60;56.10;100396.31;5019450;28;45252;-48
2022/11/14 09:04:40;;;;;;;;;18.75;13.25;;;;;21.58;55.98;100396.41;5020499;28;45544;-47
2022/11/14 09:07:06;;;;;;;;;13.50;12.75;;;;;21.59;55.71;100394.59;5017166;28;46143;-47
2022/11/14 09:09:31;;;;;;;;;11.50;10.00;;;;;21.60;55.81;100396.31;5020046;28;45383;-48
2022/11/14 09:11:57;;;;;;;;;15.25;12.50;;;;;21.58;56.15;100393.75;5018529;28;58102;-46
2022/11/14 09:14:22;;;;;;;;;18.25;14.00;;;;;21.59;55.88;100397.25;5018230;28;60731;-48
2022/11/14 09:16:48;;;;;;;;;14.25;12.25;;;;;21.59;56.23;100395.47;5017429;28;64584;-48
2022/11/14 09:19:13;;;;;;;;;14.75;13.00;;;;;21.60;55.74;100396.31;5018874;28;45372;-49
2022/11/14 09:21:39;;;;;;;;;18.00;15.00;;;;;21.60;55.87;100397.19;5019048;28;45322;-49
2022/11/14 09:24:05;;;;;;;;;13.00;12.50;;;;;21.61;56.16;100396.25;5018454;28;47926;-51
2022/11/14 09:26:30;;;;;;;;;12.25;11.00;;;;;21.62;55.60;100399.78;5002337;28;45325;-51
2022/11/14 09:28:55;;;;;;;;;14.50;13.50;;;;;21.62;55.88;100395.31;5002490;28;45277;-49
2022/11/14 09:31:21;;;;;;;;;13.75;12.25;;;;;21.62;55.84;100399.78;5019384;28;45721;-48
2022/11/14 09:33:46;;;;;;;;;13.25;13.00;;;;;21.63;55.70;100398.84;5018585;28;46371;-49
2022/11/14 09:36:17;;;;;;;;;15.00;13.50;;;;;21.63;55.74;100404.16;5019475;28;59813;-52
2022/11/14 09:38:43;;;;;;;;;12.75;12.50;;;;;21.63;56.06;100396.19;5002278;28;45374;-46
2022/11/14 09:41:36;;;;;;;;;17.75;14.25;;;;;21.63;55.97;100397.09;5018764;28;45438;-50
2022/11/14 09:44:04;;;;;;;;;20.00;17.25;;;;;21.64;55.96;100389.97;5018393;28;46092;-47
2022/11/14 09:46:38;;;;;;;;;17.50;12.50;;;;;21.63;54.77;100390.88;5034278;28;45393;-48
2022/11/14 09:49:04;;;;;;;;;22.50;16.25;;;;;21.60;54.67;100383.91;5001254;28;45373;-52
2022/11/14 09:51:42;;;;;;;;;25.00;23.00;;;;;21.59;53.10;100383.97;5017475;28;45478;-50
2022/11/14 09:54:25;;;;;;;;;23.75;22.50;;;;;21.56;53.49;100384.13;4999078;28;46300;-50
2022/11/14 09:56:50;;;;;;;;;23.00;18.75;;;;;21.55;53.87;100383.25;5018456;28;45329;-48
2022/11/14 09:59:16;;;;;;;;;24.00;20.50;;;;;21.55;53.86;100382.41;5017152;28;63581;-49
2022/11/14 10:01:56;;;;;;;;;24.50;20.50;;;;;21.55;54.02;100382.41;5018761;28;54135;-49
2022/11/14 10:04:39;;;;;;;;;28.00;23.25;;;;;21.56;54.17;100397.41;5001142;28;45457;-50
2022/11/14 10:07:14;;;;;;;;;24.50;20.75;;;;;21.56;53.98;100390.28;5017423;28;45354;-52
2022/11/14 10:09:57;;;;;;;;;21.00;21.00;;;;;21.56;54.42;100398.25;5016810;28;45458;-49
2022/11/14 10:12:45;;;;;;;;;22.50;18.00;;;;;21.57;54.33;100399.13;5019550;28;45164;-47
2022/11/14 10:15:30;;;;;;;;;25.75;21.00;;;;;21.57;54.18;100399.13;5021978;28;46168;-47
2022/11/14 10:17:55;;;;;;;;;26.50;21.00;;;;;21.56;54.28;100395.59;5018631;28;45450;-48
2022/11/14 10:20:32;;;;;;;;;25.50;20.75;;;;;21.57;54.34;100388.50;5019314;28;45320;-47
2022/11/14 10:23:19;;;;;;;;;25.25;22.00;;;;;21.57;54.58;100394.69;5018010;28;45335;-45
2022/11/14 10:26:11;;;;;;;;;27.25;22.75;;;;;21.57;54.59;100383.19;5018831;28;47053;-46
2022/11/14 10:28:48;;;;;;;;;21.00;19.75;;;;;21.56;54.75;100381.47;5007762;28;45396;-47
2022/11/14 10:31:42;;;;;;;;;21.75;19.50;;;;;21.56;55.02;100379.69;5001452;28;45381;-47
2022/11/14 10:34:12;;;;;;;;;20.50;18.75;;;;;21.57;55.22;100375.22;5018987;28;45477;-44
2022/11/14 10:36:41;;;;;;;;;20.50;19.25;;;;;21.58;54.47;100366.31;5001613;28;45431;-47
2022/11/14 10:39:16;;;;;;;;;22.75;21.25;;;;;21.59;54.79;100368.03;5019041;28;45358;-43
2022/11/14 10:41:42;;;;;;;;;22.75;20.75;;;;;21.59;54.77;100368.03;5001513;28;45284;-48
2022/11/14 10:44:10;;;;;;;;;21.50;18.75;;;;;21.59;54.91;100362.75;5017632;28;45425;-44
2022/11/14 10:46:38;;;;;;;;;21.00;18.00;;;;;21.59;54.39;100354.78;5001432;28;45606;-49
2022/11/14 10:49:18;;;;;;;;;21.25;19.00;;;;;21.58;54.01;100353.03;5017624;28;45295;-47
2022/11/14 10:51:45;;;;;;;;;19.25;19.00;;;;;21.58;54.20;100364.53;5021371;28;45536;-43
2022/11/14 10:54:11;;;;;;;;;27.25;23.00;;;;;21.57;54.15;100346.88;4987947;28;45830;-44
2022/11/14 10:56:53;;;;;;;;;26.50;24.50;;;;;21.57;54.03;100353.97;5021984;28;46229;-44
2022/11/14 10:59:19;;;;;;;;;31.50;28.00;;;;;21.56;54.19;100357.56;5016346;28;45287;-45
2022/11/14 11:01:52;;;;;;;;;32.25;24.00;;;;;21.57;53.66;100348.66;5014995;28;45596;-49
2022/11/14 11:04:25;;;;;;;;;32.25;23.75;;;;;21.56;53.93;100353.13;5019018;28;45468;-50
2022/11/14 11:06:55;;;;;;;;;31.75;23.75;;;;;21.57;54.23;100349.53;5016978;28;46221;-49
2022/11/14 11:12:15;;;;;;;;;28.75;26.25;;;;;21.58;54.44;100355.69;5018634;28;45575;-46